sensor_id;sensor_type;location;lat;lon;timestamp;temperature;humidity
1155;DHT22;566;48.414;9.118;2023-06-22T00:01:02;19.50;92.50
1155;DHT22;566;48.414;9.118;2023-06-22T00:03:28;19.40;92.10
1155;DHT22;566;48.414;9.118;2023-06-22T00:05:53;19.30;91.70
1155;DHT22;566;48.414;9.118;2023-06-22T00:08:19;19.20;91.50
1155;DHT22;566;48.414;9.118;2023-06-22T00:10:46;19.20;91.10
1155;DHT22;566;48.414;9.118;2023-06-22T00:13:13;19.10;90.70
1155;DHT22;566;48.414;9.118;2023-06-22T00:15:40;19.00;90.50
1155;DHT22;566;48.414;9.118;2023-06-22T00:18:09;18.90;90.00
1155;DHT22;566;48.414;9.118;2023-06-22T00:20:35;18.80;89.40
1155;DHT22;566;48.414;9.118;2023-06-22T00:23:06;18.70;89.20
1155;DHT22;566;48.414;9.118;2023-06-22T00:25:38;18.60;88.60
1155;DHT22;566;48.414;9.118;2023-06-22T00:28:07;18.50;88.10
1155;DHT22;566;48.414;9.118;2023-06-22T00:30:33;18.50;87.40
1155;DHT22;566;48.414;9.118;2023-06-22T00:32:59;18.50;87.60
1155;DHT22;566;48.414;9.118;2023-06-22T00:35:25;18.40;86.60
1155;DHT22;566;48.414;9.118;2023-06-22T00:37:55;18.30;85.70
1155;DHT22;566;48.414;9.118;2023-06-22T00:40:28;18.30;85.30
1155;DHT22;566;48.414;9.118;2023-06-22T00:42:54;18.20;85.10
1155;DHT22;566;48.414;9.118;2023-06-22T00:45:21;18.10;84.70
1155;DHT22;566;48.414;9.118;2023-06-22T00:47:52;18.10;83.90
1155;DHT22;566;48.414;9.118;2023-06-22T00:50:20;18.00;83.20
1155;DHT22;566;48.414;9.118;2023-06-22T00:52:56;17.90;81.70
1155;DHT22;566;48.414;9.118;2023-06-22T00:55:22;17.80;81.10
1155;DHT22;566;48.414;9.118;2023-06-22T00:57:48;17.70;80.50
1155;DHT22;566;48.414;9.118;2023-06-22T01:00:18;17.70;79.40
1155;DHT22;566;48.414;9.118;2023-06-22T01:02:47;17.70;78.30
1155;DHT22;566;48.414;9.118;2023-06-22T01:05:18;17.70;78.80
1155;DHT22;566;48.414;9.118;2023-06-22T01:08:22;17.60;78.70
1155;DHT22;566;48.414;9.118;2023-06-22T01:10:53;17.50;77.70
1155;DHT22;566;48.414;9.118;2023-06-22T01:16:23;17.40;77.30
1155;DHT22;566;48.414;9.118;2023-06-22T01:18:53;17.40;76.70
1155;DHT22;566;48.414;9.118;2023-06-22T01:21:22;17.30;76.30
1155;DHT22;566;48.414;9.118;2023-06-22T01:29:29;17.40;75.00
1155;DHT22;566;48.414;9.118;2023-06-22T01:31:57;17.30;75.10
1155;DHT22;566;48.414;9.118;2023-06-22T01:34:23;17.30;74.30
1155;DHT22;566;48.414;9.118;2023-06-22T01:36:51;17.30;74.10
1155;DHT22;566;48.414;9.118;2023-06-22T01:39:17;17.40;73.70
1155;DHT22;566;48.414;9.118;2023-06-22T01:41:44;17.40;74.20
1155;DHT22;566;48.414;9.118;2023-06-22T01:44:10;17.30;74.70
1155;DHT22;566;48.414;9.118;2023-06-22T01:46:38;17.20;75.00
1155;DHT22;566;48.414;9.118;2023-06-22T01:49:06;17.10;74.60
1155;DHT22;566;48.414;9.118;2023-06-22T01:51:32;17.10;73.40
1155;DHT22;566;48.414;9.118;2023-06-22T01:53:57;17.10;72.40
1155;DHT22;566;48.414;9.118;2023-06-22T01:56:23;17.10;73.00
1155;DHT22;566;48.414;9.118;2023-06-22T01:59:11;17.00;73.40
1155;DHT22;566;48.414;9.118;2023-06-22T02:02:02;17.00;72.30
1155;DHT22;566;48.414;9.118;2023-06-22T02:04:33;17.00;71.40
1155;DHT22;566;48.414;9.118;2023-06-22T02:07:00;17.00;71.00
1155;DHT22;566;48.414;9.118;2023-06-22T02:09:30;17.00;71.60
1155;DHT22;566;48.414;9.118;2023-06-22T02:11:57;16.90;72.10
1155;DHT22;566;48.414;9.118;2023-06-22T02:14:24;16.80;72.00
1155;DHT22;566;48.414;9.118;2023-06-22T02:16:51;16.70;71.80
1155;DHT22;566;48.414;9.118;2023-06-22T02:19:17;16.70;70.40
1155;DHT22;566;48.414;9.118;2023-06-22T02:21:47;16.70;69.80
1155;DHT22;566;48.414;9.118;2023-06-22T02:24:13;16.60;69.90
1155;DHT22;566;48.414;9.118;2023-06-22T02:26:38;16.60;68.90
1155;DHT22;566;48.414;9.118;2023-06-22T02:29:08;16.60;67.10
1155;DHT22;566;48.414;9.118;2023-06-22T02:31:33;16.70;67.20
1155;DHT22;566;48.414;9.118;2023-06-22T02:33:59;16.70;67.30
1155;DHT22;566;48.414;9.118;2023-06-22T02:36:25;16.70;66.90
1155;DHT22;566;48.414;9.118;2023-06-22T02:38:53;16.60;66.40
1155;DHT22;566;48.414;9.118;2023-06-22T02:41:19;16.70;66.00
1155;DHT22;566;48.414;9.118;2023-06-22T02:43:45;16.70;66.40
1155;DHT22;566;48.414;9.118;2023-06-22T02:46:12;16.60;66.40
1155;DHT22;566;48.414;9.118;2023-06-22T02:48:39;16.60;66.00
1155;DHT22;566;48.414;9.118;2023-06-22T02:51:04;16.60;66.30
1155;DHT22;566;48.414;9.118;2023-06-22T02:53:30;16.60;66.40
1155;DHT22;566;48.414;9.118;2023-06-22T02:55:56;16.60;66.30
1155;DHT22;566;48.414;9.118;2023-06-22T02:58:21;16.60;66.30
1155;DHT22;566;48.414;9.118;2023-06-22T03:00:47;16.60;66.90
1155;DHT22;566;48.414;9.118;2023-06-22T03:03:12;16.50;66.50
1155;DHT22;566;48.414;9.118;2023-06-22T03:05:38;16.50;67.00
1155;DHT22;566;48.414;9.118;2023-06-22T03:08:05;16.50;67.30
1155;DHT22;566;48.414;9.118;2023-06-22T03:10:31;16.40;67.50
1155;DHT22;566;48.414;9.118;2023-06-22T03:12:56;16.40;67.80
1155;DHT22;566;48.414;9.118;2023-06-22T03:15:22;16.30;68.10
1155;DHT22;566;48.414;9.118;2023-06-22T03:17:50;16.30;68.10
1155;DHT22;566;48.414;9.118;2023-06-22T03:20:15;16.20;67.70
1155;DHT22;566;48.414;9.118;2023-06-22T03:22:41;16.10;67.30
1155;DHT22;566;48.414;9.118;2023-06-22T03:25:08;16.10;66.60
1155;DHT22;566;48.414;9.118;2023-06-22T03:27:42;16.10;66.10
1155;DHT22;566;48.414;9.118;2023-06-22T03:30:10;16.10;65.10
1155;DHT22;566;48.414;9.118;2023-06-22T03:32:36;16.20;64.30
1155;DHT22;566;48.414;9.118;2023-06-22T03:35:01;16.20;64.60
1155;DHT22;566;48.414;9.118;2023-06-22T03:37:27;16.20;64.50
1155;DHT22;566;48.414;9.118;2023-06-22T03:39:53;16.20;64.40
1155;DHT22;566;48.414;9.118;2023-06-22T03:42:19;16.20;64.10
1155;DHT22;566;48.414;9.118;2023-06-22T03:44:44;16.30;63.80
1155;DHT22;566;48.414;9.118;2023-06-22T03:47:10;16.40;64.20
1155;DHT22;566;48.414;9.118;2023-06-22T03:49:36;16.40;64.80
1155;DHT22;566;48.414;9.118;2023-06-22T03:52:02;16.50;64.70
1155;DHT22;566;48.414;9.118;2023-06-22T03:54:31;16.50;65.00
1155;DHT22;566;48.414;9.118;2023-06-22T03:56:57;16.50;65.90
1155;DHT22;566;48.414;9.118;2023-06-22T03:59:23;16.60;65.90
1155;DHT22;566;48.414;9.118;2023-06-22T04:01:49;16.60;66.90
1155;DHT22;566;48.414;9.118;2023-06-22T04:04:16;16.60;67.10
1155;DHT22;566;48.414;9.118;2023-06-22T04:06:41;16.60;67.50
1155;DHT22;566;48.414;9.118;2023-06-22T04:09:07;16.60;68.00
1155;DHT22;566;48.414;9.118;2023-06-22T04:11:33;16.70;67.60
1155;DHT22;566;48.414;9.118;2023-06-22T04:14:01;16.80;68.20
1155;DHT22;566;48.414;9.118;2023-06-22T04:16:27;16.80;68.80
1155;DHT22;566;48.414;9.118;2023-06-22T04:18:57;16.90;69.00
1155;DHT22;566;48.414;9.118;2023-06-22T04:21:22;16.90;70.00
1155;DHT22;566;48.414;9.118;2023-06-22T04:23:48;17.00;71.00
1155;DHT22;566;48.414;9.118;2023-06-22T04:26:17;17.00;71.90
1155;DHT22;566;48.414;9.118;2023-06-22T04:28:42;17.10;72.60
1155;DHT22;566;48.414;9.118;2023-06-22T04:31:08;17.10;72.70
1155;DHT22;566;48.414;9.118;2023-06-22T04:33:33;17.20;73.50
1155;DHT22;566;48.414;9.118;2023-06-22T04:35:59;17.20;75.10
1155;DHT22;566;48.414;9.118;2023-06-22T04:38:27;17.20;76.50
1155;DHT22;566;48.414;9.118;2023-06-22T04:40:53;17.20;76.80
1155;DHT22;566;48.414;9.118;2023-06-22T04:43:19;17.20;78.20
1155;DHT22;566;48.414;9.118;2023-06-22T04:45:44;17.30;78.20
1155;DHT22;566;48.414;9.118;2023-06-22T04:48:10;17.40;78.40
1155;DHT22;566;48.414;9.118;2023-06-22T04:50:41;17.50;78.50
1155;DHT22;566;48.414;9.118;2023-06-22T04:53:07;17.60;79.50
1155;DHT22;566;48.414;9.118;2023-06-22T04:55:34;17.60;80.30
1155;DHT22;566;48.414;9.118;2023-06-22T04:58:03;17.70;80.80
1155;DHT22;566;48.414;9.118;2023-06-22T05:00:30;17.80;81.80
1155;DHT22;566;48.414;9.118;2023-06-22T05:02:56;17.90;82.20
1155;DHT22;566;48.414;9.118;2023-06-22T05:05:23;18.00;83.90
1155;DHT22;566;48.414;9.118;2023-06-22T05:07:50;18.00;84.50
1155;DHT22;566;48.414;9.118;2023-06-22T05:10:18;18.10;84.40
1155;DHT22;566;48.414;9.118;2023-06-22T05:12:44;18.30;85.20
1155;DHT22;566;48.414;9.118;2023-06-22T05:15:10;18.40;85.90
1155;DHT22;566;48.414;9.118;2023-06-22T05:17:36;18.60;87.20
1155;DHT22;566;48.414;9.118;2023-06-22T05:20:11;18.70;88.60
1155;DHT22;566;48.414;9.118;2023-06-22T05:22:38;19.00;89.70
1155;DHT22;566;48.414;9.118;2023-06-22T05:25:08;19.20;91.10
1155;DHT22;566;48.414;9.118;2023-06-22T05:27:34;19.40;92.70
1155;DHT22;566;48.414;9.118;2023-06-22T05:30:07;19.50;93.40
1155;DHT22;566;48.414;9.118;2023-06-22T05:32:33;19.70;93.90
1155;DHT22;566;48.414;9.118;2023-06-22T05:34:59;19.90;94.90
1155;DHT22;566;48.414;9.118;2023-06-22T05:37:25;20.10;95.60
1155;DHT22;566;48.414;9.118;2023-06-22T05:39:51;20.20;95.60
1155;DHT22;566;48.414;9.118;2023-06-22T05:42:17;20.30;95.50
1155;DHT22;566;48.414;9.118;2023-06-22T05:44:42;20.50;95.80
1155;DHT22;566;48.414;9.118;2023-06-22T05:47:08;20.70;96.90
1155;DHT22;566;48.414;9.118;2023-06-22T05:49:33;20.90;96.90
1155;DHT22;566;48.414;9.118;2023-06-22T05:51:59;20.90;96.80
1155;DHT22;566;48.414;9.118;2023-06-22T05:54:27;20.90;96.50
1155;DHT22;566;48.414;9.118;2023-06-22T05:56:52;21.00;96.20
1155;DHT22;566;48.414;9.118;2023-06-22T05:59:19;21.00;95.60
1155;DHT22;566;48.414;9.118;2023-06-22T06:01:44;20.90;96.20
1155;DHT22;566;48.414;9.118;2023-06-22T06:04:10;20.90;95.80
1155;DHT22;566;48.414;9.118;2023-06-22T06:06:36;21.00;96.30
1155;DHT22;566;48.414;9.118;2023-06-22T06:09:06;21.20;96.80
1155;DHT22;566;48.414;9.118;2023-06-22T06:11:33;21.30;96.40
1155;DHT22;566;48.414;9.118;2023-06-22T06:13:58;21.40;96.40
1155;DHT22;566;48.414;9.118;2023-06-22T06:16:24;21.60;96.70
1155;DHT22;566;48.414;9.118;2023-06-22T06:18:50;21.70;96.60
1155;DHT22;566;48.414;9.118;2023-06-22T06:21:16;21.80;96.70
1155;DHT22;566;48.414;9.118;2023-06-22T06:23:42;22.00;96.60
1155;DHT22;566;48.414;9.118;2023-06-22T06:26:08;22.00;97.00
1155;DHT22;566;48.414;9.118;2023-06-22T06:28:34;22.10;96.20
1155;DHT22;566;48.414;9.118;2023-06-22T06:31:00;22.30;95.40
1155;DHT22;566;48.414;9.118;2023-06-22T06:33:26;22.40;95.20
1155;DHT22;566;48.414;9.118;2023-06-22T06:35:52;22.60;94.70
1155;DHT22;566;48.414;9.118;2023-06-22T06:38:17;22.60;94.20
1155;DHT22;566;48.414;9.118;2023-06-22T06:40:43;22.70;94.20
1155;DHT22;566;48.414;9.118;2023-06-22T06:43:10;22.80;93.90
1155;DHT22;566;48.414;9.118;2023-06-22T06:45:36;22.90;93.90
1155;DHT22;566;48.414;9.118;2023-06-22T06:48:01;23.10;93.30
1155;DHT22;566;48.414;9.118;2023-06-22T06:50:30;23.30;93.30
1155;DHT22;566;48.414;9.118;2023-06-22T06:52:56;23.70;92.50
1155;DHT22;566;48.414;9.118;2023-06-22T06:55:24;23.80;91.70
1155;DHT22;566;48.414;9.118;2023-06-22T06:57:51;23.70;92.60
1155;DHT22;566;48.414;9.118;2023-06-22T07:00:18;23.80;91.50
1155;DHT22;566;48.414;9.118;2023-06-22T07:02:44;23.80;93.00
1155;DHT22;566;48.414;9.118;2023-06-22T07:05:11;23.80;93.30
1155;DHT22;566;48.414;9.118;2023-06-22T07:07:37;24.10;92.70
1155;DHT22;566;48.414;9.118;2023-06-22T07:10:05;24.00;93.10
1155;DHT22;566;48.414;9.118;2023-06-22T07:12:31;24.10;93.10
1155;DHT22;566;48.414;9.118;2023-06-22T07:15:26;24.20;92.70
1155;DHT22;566;48.414;9.118;2023-06-22T07:17:51;24.20;92.90
1155;DHT22;566;48.414;9.118;2023-06-22T07:20:17;24.10;92.90
1155;DHT22;566;48.414;9.118;2023-06-22T07:22:44;24.40;92.70
1155;DHT22;566;48.414;9.118;2023-06-22T07:25:10;24.90;90.60
1155;DHT22;566;48.414;9.118;2023-06-22T07:27:43;25.60;88.30
1155;DHT22;566;48.414;9.118;2023-06-22T07:30:09;26.20;86.70
1155;DHT22;566;48.414;9.118;2023-06-22T07:32:36;26.90;83.70
1155;DHT22;566;48.414;9.118;2023-06-22T07:35:02;27.70;81.80
1155;DHT22;566;48.414;9.118;2023-06-22T07:37:28;28.00;82.10
1155;DHT22;566;48.414;9.118;2023-06-22T07:39:55;28.50;79.30
1155;DHT22;566;48.414;9.118;2023-06-22T07:42:24;28.90;79.00
1155;DHT22;566;48.414;9.118;2023-06-22T07:44:50;29.10;78.20
1155;DHT22;566;48.414;9.118;2023-06-22T07:47:16;29.40;77.90
1155;DHT22;566;48.414;9.118;2023-06-22T07:49:45;29.30;77.30
1155;DHT22;566;48.414;9.118;2023-06-22T07:52:10;29.50;76.10
1155;DHT22;566;48.414;9.118;2023-06-22T07:54:36;29.70;75.00
1155;DHT22;566;48.414;9.118;2023-06-22T07:57:02;30.20;74.50
1155;DHT22;566;48.414;9.118;2023-06-22T07:59:27;30.80;73.40
1155;DHT22;566;48.414;9.118;2023-06-22T08:01:54;30.70;73.60
1155;DHT22;566;48.414;9.118;2023-06-22T08:04:20;30.70;73.30
1155;DHT22;566;48.414;9.118;2023-06-22T08:06:45;31.00;72.80
1155;DHT22;566;48.414;9.118;2023-06-22T08:09:11;31.10;71.60
1155;DHT22;566;48.414;9.118;2023-06-22T08:11:37;30.90;74.60
1155;DHT22;566;48.414;9.118;2023-06-22T08:14:03;30.70;75.50
1155;DHT22;566;48.414;9.118;2023-06-22T08:16:28;30.90;75.30
1155;DHT22;566;48.414;9.118;2023-06-22T08:18:54;31.10;75.10
1155;DHT22;566;48.414;9.118;2023-06-22T08:21:20;30.90;75.30
1155;DHT22;566;48.414;9.118;2023-06-22T08:23:46;30.80;75.40
1155;DHT22;566;48.414;9.118;2023-06-22T08:26:11;30.40;75.70
1155;DHT22;566;48.414;9.118;2023-06-22T08:28:37;30.00;77.00
1155;DHT22;566;48.414;9.118;2023-06-22T08:31:02;29.70;76.40
1155;DHT22;566;48.414;9.118;2023-06-22T08:33:28;28.50;79.70
1155;DHT22;566;48.414;9.118;2023-06-22T08:35:56;27.90;81.60
1155;DHT22;566;48.414;9.118;2023-06-22T08:38:22;28.50;80.70
1155;DHT22;566;48.414;9.118;2023-06-22T08:40:47;28.50;79.60
1155;DHT22;566;48.414;9.118;2023-06-22T08:43:14;28.00;81.10
1155;DHT22;566;48.414;9.118;2023-06-22T08:45:39;28.30;80.50
1155;DHT22;566;48.414;9.118;2023-06-22T08:48:05;28.90;78.80
1155;DHT22;566;48.414;9.118;2023-06-22T08:50:31;29.50;77.40
1155;DHT22;566;48.414;9.118;2023-06-22T08:52:56;30.00;76.00
1155;DHT22;566;48.414;9.118;2023-06-22T08:55:22;30.70;74.00
1155;DHT22;566;48.414;9.118;2023-06-22T08:57:47;31.60;71.90
1155;DHT22;566;48.414;9.118;2023-06-22T09:00:13;31.90;72.10
1155;DHT22;566;48.414;9.118;2023-06-22T09:02:44;31.70;71.00
1155;DHT22;566;48.414;9.118;2023-06-22T09:05:09;31.80;71.90
1155;DHT22;566;48.414;9.118;2023-06-22T09:07:35;32.40;70.80
1155;DHT22;566;48.414;9.118;2023-06-22T09:10:01;32.30;70.50
1155;DHT22;566;48.414;9.118;2023-06-22T09:12:26;31.80;71.90
1155;DHT22;566;48.414;9.118;2023-06-22T09:14:53;31.90;71.20
1155;DHT22;566;48.414;9.118;2023-06-22T09:17:19;31.70;72.00
1155;DHT22;566;48.414;9.118;2023-06-22T09:19:44;31.80;72.00
1155;DHT22;566;48.414;9.118;2023-06-22T09:22:10;31.60;72.20
1155;DHT22;566;48.414;9.118;2023-06-22T09:24:35;31.70;72.00
1155;DHT22;566;48.414;9.118;2023-06-22T09:27:01;32.10;72.00
1155;DHT22;566;48.414;9.118;2023-06-22T09:29:26;32.30;70.80
1155;DHT22;566;48.414;9.118;2023-06-22T09:31:52;32.70;70.00
1155;DHT22;566;48.414;9.118;2023-06-22T09:34:21;32.90;69.40
1155;DHT22;566;48.414;9.118;2023-06-22T09:36:47;33.20;68.40
1155;DHT22;566;48.414;9.118;2023-06-22T09:39:12;34.10;68.20
1155;DHT22;566;48.414;9.118;2023-06-22T09:41:38;35.10;65.60
1155;DHT22;566;48.414;9.118;2023-06-22T09:44:03;35.50;65.70
1155;DHT22;566;48.414;9.118;2023-06-22T09:46:32;36.10;64.80
1155;DHT22;566;48.414;9.118;2023-06-22T09:48:58;36.00;63.60
1155;DHT22;566;48.414;9.118;2023-06-22T09:51:23;35.40;65.00
1155;DHT22;566;48.414;9.118;2023-06-22T09:53:50;34.90;65.30
1155;DHT22;566;48.414;9.118;2023-06-22T09:56:16;34.60;66.40
1155;DHT22;566;48.414;9.118;2023-06-22T09:58:42;34.60;67.00
1155;DHT22;566;48.414;9.118;2023-06-22T10:01:08;34.80;65.60
1155;DHT22;566;48.414;9.118;2023-06-22T10:03:34;34.50;65.90
1155;DHT22;566;48.414;9.118;2023-06-22T10:05:59;33.70;67.00
1155;DHT22;566;48.414;9.118;2023-06-22T10:08:25;33.50;68.70
1155;DHT22;566;48.414;9.118;2023-06-22T10:10:50;34.40;65.90
1155;DHT22;566;48.414;9.118;2023-06-22T10:13:16;35.20;66.60
1155;DHT22;566;48.414;9.118;2023-06-22T10:15:42;35.20;65.30
1155;DHT22;566;48.414;9.118;2023-06-22T10:18:08;36.00;64.40
1155;DHT22;566;48.414;9.118;2023-06-22T10:20:33;36.00;63.00
1155;DHT22;566;48.414;9.118;2023-06-22T10:23:01;36.00;63.00
1155;DHT22;566;48.414;9.118;2023-06-22T10:25:27;36.70;63.40
1155;DHT22;566;48.414;9.118;2023-06-22T10:27:53;36.70;63.30
1155;DHT22;566;48.414;9.118;2023-06-22T10:30:18;36.70;63.90
1155;DHT22;566;48.414;9.118;2023-06-22T10:32:44;36.40;61.20
1155;DHT22;566;48.414;9.118;2023-06-22T10:35:10;36.50;63.90
1155;DHT22;566;48.414;9.118;2023-06-22T10:37:45;36.30;64.30
1155;DHT22;566;48.414;9.118;2023-06-22T10:40:12;35.10;66.80
1155;DHT22;566;48.414;9.118;2023-06-22T10:42:38;34.10;67.70
1155;DHT22;566;48.414;9.118;2023-06-22T10:45:04;33.90;68.70
1155;DHT22;566;48.414;9.118;2023-06-22T10:47:30;34.20;67.60
1155;DHT22;566;48.414;9.118;2023-06-22T10:49:56;34.00;68.80
1155;DHT22;566;48.414;9.118;2023-06-22T10:52:21;33.60;70.80
1155;DHT22;566;48.414;9.118;2023-06-22T10:54:47;33.30;72.30
1155;DHT22;566;48.414;9.118;2023-06-22T10:57:12;33.70;70.70
1155;DHT22;566;48.414;9.118;2023-06-22T10:59:38;34.60;69.10
1155;DHT22;566;48.414;9.118;2023-06-22T11:02:03;34.80;68.20
1155;DHT22;566;48.414;9.118;2023-06-22T11:04:29;34.30;69.10
1155;DHT22;566;48.414;9.118;2023-06-22T11:06:54;33.90;70.90
1155;DHT22;566;48.414;9.118;2023-06-22T11:09:21;33.60;70.70
1155;DHT22;566;48.414;9.118;2023-06-22T11:11:47;33.70;70.50
1155;DHT22;566;48.414;9.118;2023-06-22T11:14:13;33.50;73.00
1155;DHT22;566;48.414;9.118;2023-06-22T11:16:39;34.20;70.30
1155;DHT22;566;48.414;9.118;2023-06-22T11:19:05;34.90;67.40
1155;DHT22;566;48.414;9.118;2023-06-22T11:21:31;35.50;65.50
1155;DHT22;566;48.414;9.118;2023-06-22T11:23:57;35.90;65.40
1155;DHT22;566;48.414;9.118;2023-06-22T11:26:22;36.30;63.20
1155;DHT22;566;48.414;9.118;2023-06-22T11:28:48;36.40;64.20
1155;DHT22;566;48.414;9.118;2023-06-22T11:31:14;35.80;64.10
1155;DHT22;566;48.414;9.118;2023-06-22T11:33:39;34.50;67.80
1155;DHT22;566;48.414;9.118;2023-06-22T11:36:05;33.40;71.80
1155;DHT22;566;48.414;9.118;2023-06-22T11:38:31;33.10;72.20
1155;DHT22;566;48.414;9.118;2023-06-22T11:40:58;33.40;72.70
1155;DHT22;566;48.414;9.118;2023-06-22T11:43:23;33.40;70.60
1155;DHT22;566;48.414;9.118;2023-06-22T11:45:49;33.70;70.10
1155;DHT22;566;48.414;9.118;2023-06-22T11:48:16;34.20;70.70
1155;DHT22;566;48.414;9.118;2023-06-22T11:50:41;34.90;68.20
1155;DHT22;566;48.414;9.118;2023-06-22T11:53:07;35.00;68.40
1155;DHT22;566;48.414;9.118;2023-06-22T11:55:32;34.00;70.10
1155;DHT22;566;48.414;9.118;2023-06-22T11:57:58;33.50;72.30
1155;DHT22;566;48.414;9.118;2023-06-22T12:00:29;33.50;72.30
1155;DHT22;566;48.414;9.118;2023-06-22T12:02:55;33.20;73.40
1155;DHT22;566;48.414;9.118;2023-06-22T12:05:21;33.00;73.80
1155;DHT22;566;48.414;9.118;2023-06-22T12:07:48;33.00;74.10
1155;DHT22;566;48.414;9.118;2023-06-22T12:10:14;33.00;74.00
1155;DHT22;566;48.414;9.118;2023-06-22T12:12:39;32.70;74.40
1155;DHT22;566;48.414;9.118;2023-06-22T12:15:05;31.60;76.20
1155;DHT22;566;48.414;9.118;2023-06-22T12:17:31;30.60;78.80
1155;DHT22;566;48.414;9.118;2023-06-22T12:19:56;30.00;80.90
1155;DHT22;566;48.414;9.118;2023-06-22T12:22:22;30.00;81.20
1155;DHT22;566;48.414;9.118;2023-06-22T12:24:48;30.00;80.40
1155;DHT22;566;48.414;9.118;2023-06-22T12:27:14;30.00;80.10
1155;DHT22;566;48.414;9.118;2023-06-22T12:29:41;30.20;80.20
1155;DHT22;566;48.414;9.118;2023-06-22T12:32:07;30.00;79.80
1155;DHT22;566;48.414;9.118;2023-06-22T12:34:33;30.30;80.00
1155;DHT22;566;48.414;9.118;2023-06-22T12:36:58;30.50;80.10
1155;DHT22;566;48.414;9.118;2023-06-22T12:39:24;30.50;79.60
1155;DHT22;566;48.414;9.118;2023-06-22T12:41:49;30.40;79.60
1155;DHT22;566;48.414;9.118;2023-06-22T12:44:15;30.60;78.60
1155;DHT22;566;48.414;9.118;2023-06-22T12:46:40;30.70;77.90
1155;DHT22;566;48.414;9.118;2023-06-22T12:49:06;30.80;77.20
1155;DHT22;566;48.414;9.118;2023-06-22T12:51:32;30.70;77.90
1155;DHT22;566;48.414;9.118;2023-06-22T12:53:57;31.10;77.30
1155;DHT22;566;48.414;9.118;2023-06-22T12:56:23;31.30;76.70
1155;DHT22;566;48.414;9.118;2023-06-22T12:58:48;31.90;75.80
1155;DHT22;566;48.414;9.118;2023-06-22T13:01:14;32.40;74.00
1155;DHT22;566;48.414;9.118;2023-06-22T13:03:40;32.70;72.50
1155;DHT22;566;48.414;9.118;2023-06-22T13:06:05;32.30;73.30
1155;DHT22;566;48.414;9.118;2023-06-22T13:08:31;32.80;72.80
1155;DHT22;566;48.414;9.118;2023-06-22T13:10:56;33.80;69.50
1155;DHT22;566;48.414;9.118;2023-06-22T13:13:23;34.40;67.10
1155;DHT22;566;48.414;9.118;2023-06-22T13:15:55;35.10;65.50
1155;DHT22;566;48.414;9.118;2023-06-22T13:18:20;34.80;66.10
1155;DHT22;566;48.414;9.118;2023-06-22T13:20:46;34.70;67.20
1155;DHT22;566;48.414;9.118;2023-06-22T13:23:11;34.70;65.20
1155;DHT22;566;48.414;9.118;2023-06-22T13:25:37;34.60;66.00
1155;DHT22;566;48.414;9.118;2023-06-22T13:28:03;34.00;67.70
1155;DHT22;566;48.414;9.118;2023-06-22T13:30:29;33.60;68.30
1155;DHT22;566;48.414;9.118;2023-06-22T13:32:55;33.10;69.70
1155;DHT22;566;48.414;9.118;2023-06-22T13:35:20;32.60;70.20
1155;DHT22;566;48.414;9.118;2023-06-22T13:37:46;32.50;71.50
1155;DHT22;566;48.414;9.118;2023-06-22T13:40:13;32.30;71.20
1155;DHT22;566;48.414;9.118;2023-06-22T13:42:38;32.30;71.00
1155;DHT22;566;48.414;9.118;2023-06-22T13:45:05;32.60;71.20
1155;DHT22;566;48.414;9.118;2023-06-22T13:47:31;32.80;69.90
1155;DHT22;566;48.414;9.118;2023-06-22T13:49:57;32.80;70.50
1155;DHT22;566;48.414;9.118;2023-06-22T13:52:23;32.70;71.10
1155;DHT22;566;48.414;9.118;2023-06-22T13:54:48;32.40;71.80
1155;DHT22;566;48.414;9.118;2023-06-22T13:57:14;31.80;70.90
1155;DHT22;566;48.414;9.118;2023-06-22T13:59:40;31.50;73.40
1155;DHT22;566;48.414;9.118;2023-06-22T14:02:06;31.40;77.80
1155;DHT22;566;48.414;9.118;2023-06-22T14:04:31;31.00;79.60
1155;DHT22;566;48.414;9.118;2023-06-22T14:06:57;31.00;81.30
1155;DHT22;566;48.414;9.118;2023-06-22T14:09:22;31.00;81.00
1155;DHT22;566;48.414;9.118;2023-06-22T14:11:48;31.00;81.00
1155;DHT22;566;48.414;9.118;2023-06-22T14:14:14;31.40;81.50
1155;DHT22;566;48.414;9.118;2023-06-22T14:16:39;31.90;81.90
1155;DHT22;566;48.414;9.118;2023-06-22T14:19:05;32.50;78.70
1155;DHT22;566;48.414;9.118;2023-06-22T14:21:32;33.00;78.60
1155;DHT22;566;48.414;9.118;2023-06-22T14:23:58;33.70;76.90
1155;DHT22;566;48.414;9.118;2023-06-22T14:26:35;34.10;73.40
1155;DHT22;566;48.414;9.118;2023-06-22T14:29:00;34.60;72.80
1155;DHT22;566;48.414;9.118;2023-06-22T14:31:26;34.70;69.80
1155;DHT22;566;48.414;9.118;2023-06-22T14:33:52;34.70;69.20
1155;DHT22;566;48.414;9.118;2023-06-22T14:36:22;34.90;66.10
1155;DHT22;566;48.414;9.118;2023-06-22T14:38:56;34.70;68.60
1155;DHT22;566;48.414;9.118;2023-06-22T14:41:21;35.10;66.90
1155;DHT22;566;48.414;9.118;2023-06-22T14:43:48;34.80;69.10
1155;DHT22;566;48.414;9.118;2023-06-22T14:46:20;34.80;69.30
1155;DHT22;566;48.414;9.118;2023-06-22T14:48:45;34.20;70.00
1155;DHT22;566;48.414;9.118;2023-06-22T14:51:12;33.80;70.90
1155;DHT22;566;48.414;9.118;2023-06-22T14:53:38;33.00;71.30
1155;DHT22;566;48.414;9.118;2023-06-22T14:56:03;32.60;72.00
1155;DHT22;566;48.414;9.118;2023-06-22T14:58:33;32.70;72.40
1155;DHT22;566;48.414;9.118;2023-06-22T15:00:59;32.40;72.40
1155;DHT22;566;48.414;9.118;2023-06-22T15:03:25;31.70;74.30
1155;DHT22;566;48.414;9.118;2023-06-22T15:05:54;31.60;70.00
1155;DHT22;566;48.414;9.118;2023-06-22T15:08:20;31.50;70.10
1155;DHT22;566;48.414;9.118;2023-06-22T15:10:46;31.10;70.70
1155;DHT22;566;48.414;9.118;2023-06-22T15:13:12;31.00;69.30
1155;DHT22;566;48.414;9.118;2023-06-22T15:15:37;30.90;69.40
1155;DHT22;566;48.414;9.118;2023-06-22T15:18:03;30.40;70.10
1155;DHT22;566;48.414;9.118;2023-06-22T15:20:28;30.20;70.00
1155;DHT22;566;48.414;9.118;2023-06-22T15:22:54;30.00;69.50
1155;DHT22;566;48.414;9.118;2023-06-22T15:25:20;29.70;68.70
1155;DHT22;566;48.414;9.118;2023-06-22T15:27:46;29.60;68.40
1155;DHT22;566;48.414;9.118;2023-06-22T15:30:11;29.30;67.80
1155;DHT22;566;48.414;9.118;2023-06-22T15:32:37;29.10;67.40
1155;DHT22;566;48.414;9.118;2023-06-22T15:35:03;29.10;67.90
1155;DHT22;566;48.414;9.118;2023-06-22T15:37:29;29.10;66.60
1155;DHT22;566;48.414;9.118;2023-06-22T15:39:54;28.70;66.50
1155;DHT22;566;48.414;9.118;2023-06-22T15:42:21;28.70;66.50
1155;DHT22;566;48.414;9.118;2023-06-22T15:44:47;28.60;66.90
1155;DHT22;566;48.414;9.118;2023-06-22T15:47:13;28.60;66.70
1155;DHT22;566;48.414;9.118;2023-06-22T15:49:38;28.50;67.10
1155;DHT22;566;48.414;9.118;2023-06-22T15:52:04;28.50;68.90
1155;DHT22;566;48.414;9.118;2023-06-22T15:54:30;28.50;70.60
1155;DHT22;566;48.414;9.118;2023-06-22T15:56:55;28.30;70.00
1155;DHT22;566;48.414;9.118;2023-06-22T15:59:21;28.10;70.70
1155;DHT22;566;48.414;9.118;2023-06-22T16:01:49;28.00;71.10
1155;DHT22;566;48.414;9.118;2023-06-22T16:04:15;27.90;70.60
1155;DHT22;566;48.414;9.118;2023-06-22T16:06:41;27.80;71.00
1155;DHT22;566;48.414;9.118;2023-06-22T16:09:06;27.50;71.70
1155;DHT22;566;48.414;9.118;2023-06-22T16:11:32;27.20;72.40
1155;DHT22;566;48.414;9.118;2023-06-22T16:13:57;26.80;74.20
1155;DHT22;566;48.414;9.118;2023-06-22T16:16:23;26.20;76.80
1155;DHT22;566;48.414;9.118;2023-06-22T16:18:49;25.80;79.70
1155;DHT22;566;48.414;9.118;2023-06-22T16:21:14;25.40;79.40